Time;durP1;ratioP1;P1;durP2;ratioP2;P2;SDS_P1;SDS_P2;PMS_P1;PMS_P2;Temp;Humidity;BMP_temperature;BMP_pressure;BME280_temperature;BME280_humidity;BME280_pressure;Samples;Min_cycle;Max_cycle;Signal;HPM_P1;HPM_P2
2021/12/16 00:09:38;;;;;;;3.70;1.60;;;4.90;99.90;;;;;;5113716;28;20769;-61
2021/12/16 00:29:13;;;;;;;3.40;1.30;;;4.90;99.90;;;;;;5055219;28;20467;-61
2021/12/16 00:31:49;;;;;;;4.47;1.30;;;4.80;99.90;;;;;;5095869;28;20510;-61
2021/12/16 00:34:17;;;;;;;5.40;2.07;;;4.80;99.90;;;;;;5096350;28;20445;-61
2021/12/16 00:36:47;;;;;;;5.13;1.17;;;4.80;99.90;;;;;;5096652;28;20519;-62
2021/12/16 00:39:18;;;;;;;4.60;1.77;;;4.80;99.90;;;;;;5106932;28;20567;-61
2021/12/16 00:41:50;;;;;;;4.80;1.40;;;4.90;99.90;;;;;;5116387;28;20539;-61
2021/12/16 00:44:46;;;;;;;5.27;1.70;;;4.80;99.90;;;;;;5116058;28;20480;-61
2021/12/16 00:47:27;;;;;;;3.10;1.27;;;4.80;99.90;;;;;;5115066;28;20441;-62
2021/12/16 00:50:04;;;;;;;5.03;1.57;;;4.90;99.90;;;;;;5115577;28;20555;-61
2021/12/16 00:55:28;;;;;;;3.53;1.33;;;4.90;99.90;;;;;;5115589;28;20478;-61
2021/12/16 00:57:55;;;;;;;6.60;1.80;;;4.80;99.90;;;;;;5115441;28;20475;-62
2021/12/16 01:00:27;;;;;;;5.97;1.90;;;4.90;99.90;;;;;;5115350;28;20508;-62
2021/12/16 01:03:10;;;;;;;5.53;2.17;;;4.90;99.90;;;;;;5115263;28;20488;-61
2021/12/16 01:33:46;;;;;;;3.17;1.30;;;4.80;99.90;;;;;;5118345;28;20408;-61
2021/12/16 01:36:28;;;;;;;6.00;1.70;;;4.80;99.90;;;;;;5119573;28;20448;-62
2021/12/16 01:39:27;;;;;;;4.50;1.80;;;4.80;99.90;;;;;;5119692;28;20500;-61
2021/12/16 01:47:44;;;;;;;4.33;1.57;;;4.80;99.90;;;;;;5119585;28;20420;-61
2021/12/16 01:50:16;;;;;;;12.20;2.90;;;4.80;99.90;;;;;;5120102;28;20914;-62
2021/12/16 01:55:47;;;;;;;6.80;2.63;;;4.90;99.90;;;;;;5119938;28;20844;-61
2021/12/16 01:58:20;;;;;;;4.00;2.60;;;4.80;99.90;;;;;;5119439;28;20758;-61
2021/12/16 02:00:59;;;;;;;5.03;2.60;;;4.90;99.90;;;;;;5118077;28;20991;-61
2021/12/16 02:03:40;;;;;;;8.80;2.90;;;4.90;99.90;;;;;;5118601;28;20942;-61
2021/12/16 02:06:23;;;;;;;6.47;2.80;;;4.90;99.90;;;;;;5118105;28;20513;-61
2021/12/16 02:08:56;;;;;;;4.57;2.07;;;4.90;99.90;;;;;;5118542;28;20440;-61
2021/12/16 02:11:43;;;;;;;8.03;1.93;;;4.90;99.90;;;;;;5119072;28;20498;-61
2021/12/16 02:28:26;;;;;;;3.50;1.37;;;4.80;99.90;;;;;;5119261;28;20785;-61
2021/12/16 02:34:17;;;;;;;7.60;2.57;;;4.80;99.90;;;;;;5119950;28;20698;-61
2021/12/16 02:36:43;;;;;;;3.33;1.27;;;4.90;99.90;;;;;;5119146;28;20448;-61
2021/12/16 02:39:15;;;;;;;4.87;1.40;;;4.90;99.90;;;;;;5119070;28;20571;-61
2021/12/16 02:41:46;;;;;;;5.13;1.47;;;4.90;99.90;;;;;;5119389;28;20930;-61
2021/12/16 02:44:28;;;;;;;4.43;2.00;;;4.80;99.90;;;;;;5119202;28;20515;-62
2021/12/16 02:49:44;;;;;;;5.73;2.50;;;4.80;99.90;;;;;;5118746;28;20494;-61
2021/12/16 02:52:12;;;;;;;3.90;2.30;;;4.90;99.90;;;;;;5119044;28;20448;-61
2021/12/16 02:54:41;;;;;;;6.57;2.67;;;4.90;99.90;;;;;;5118961;28;20471;-61
2021/12/16 02:57:09;;;;;;;4.47;1.67;;;4.90;99.90;;;;;;5119339;28;20441;-62
2021/12/16 02:59:36;;;;;;;3.83;1.53;;;4.90;99.90;;;;;;5118819;28;20484;-61
2021/12/16 03:02:09;;;;;;;8.33;3.33;;;4.90;99.90;;;;;;5118793;28;20887;-61
2021/12/16 03:04:38;;;;;;;5.97;1.87;;;4.90;99.90;;;;;;5117471;28;20480;-62
2021/12/16 03:07:09;;;;;;;4.97;1.90;;;4.90;99.90;;;;;;5115738;28;20502;-61
2021/12/16 03:15:23;;;;;;;6.83;1.80;;;4.90;99.90;;;;;;5110300;28;20445;-61
2021/12/16 03:17:58;;;;;;;4.37;2.17;;;4.90;99.90;;;;;;5116212;28;20476;-61
2021/12/16 03:20:34;;;;;;;5.77;2.23;;;5.00;99.90;;;;;;5116686;28;20460;-61
2021/12/16 03:23:18;;;;;;;3.93;1.57;;;5.00;99.90;;;;;;5117001;28;20444;-61
2021/12/16 03:25:59;;;;;;;7.80;2.70;;;5.00;99.90;;;;;;5116312;28;20462;-61
2021/12/16 03:28:50;;;;;;;8.10;3.07;;;5.00;99.90;;;;;;5116473;28;20449;-61
2021/12/16 03:34:31;;;;;;;4.60;2.00;;;4.90;99.90;;;;;;5069796;28;20419;-61
2021/12/16 03:37:18;;;;;;;6.90;2.00;;;4.90;99.90;;;;;;5095438;28;20445;-61
2021/12/16 03:39:50;;;;;;;6.97;2.37;;;4.90;99.90;;;;;;5107709;28;20918;-62
2021/12/16 03:42:19;;;;;;;4.40;2.13;;;4.90;99.90;;;;;;5117674;28;20540;-62
2021/12/16 03:45:00;;;;;;;6.00;1.93;;;4.90;99.90;;;;;;5117833;28;20480;-61
2021/12/16 03:47:33;;;;;;;6.33;2.27;;;4.90;99.90;;;;;;5117952;28;20537;-62
2021/12/16 03:50:04;;;;;;;5.30;1.70;;;4.90;99.90;;;;;;5117677;27;20548;-61
2021/12/16 03:52:31;;;;;;;5.77;2.20;;;5.10;99.90;;;;;;5117812;28;20472;-61
2021/12/16 03:54:59;;;;;;;6.43;2.83;;;5.20;99.90;;;;;;5117210;28;20751;-61
2021/12/16 03:57:30;;;;;;;4.93;1.83;;;5.10;99.90;;;;;;5116299;28;20477;-61
2021/12/16 03:59:59;;;;;;;5.70;2.00;;;5.10;99.90;;;;;;5115817;28;20465;-61
2021/12/16 04:02:30;;;;;;;6.30;3.07;;;5.10;99.90;;;;;;5116484;28;20480;-61
2021/12/16 04:04:58;;;;;;;6.57;2.80;;;5.10;99.90;;;;;;5115908;28;20927;-61
2021/12/16 04:07:28;;;;;;;5.17;2.43;;;5.10;99.90;;;;;;5116073;28;20832;-61
2021/12/16 04:09:55;;;;;;;6.57;2.67;;;5.10;99.90;;;;;;5116636;28;20818;-61
2021/12/16 04:12:24;;;;;;;9.43;4.23;;;5.00;99.90;;;;;;5117660;28;20483;-61
2021/12/16 04:14:54;;;;;;;7.03;2.50;;;5.00;99.90;;;;;;5117058;28;20461;-61
2021/12/16 04:17:26;;;;;;;4.07;1.77;;;5.00;99.90;;;;;;5117316;28;20935;-61
2021/12/16 04:19:53;;;;;;;6.00;2.60;;;4.90;99.90;;;;;;5116340;28;20923;-61
2021/12/16 04:22:27;;;;;;;6.20;2.43;;;4.90;99.90;;;;;;5117172;28;20535;-61
2021/12/16 04:24:55;;;;;;;14.93;3.10;;;4.90;99.90;;;;;;5117288;28;20480;-61
2021/12/16 04:27:22;;;;;;;6.53;2.50;;;5.00;99.90;;;;;;5117468;28;20464;-61
2021/12/16 04:29:50;;;;;;;6.63;2.03;;;4.90;99.90;;;;;;5117227;28;20570;-61
2021/12/16 04:32:18;;;;;;;7.30;3.00;;;4.90;99.90;;;;;;5117032;28;20490;-61
2021/12/16 04:34:47;;;;;;;7.03;3.23;;;4.90;99.90;;;;;;5117021;28;20483;-61
2021/12/16 04:37:14;;;;;;;9.10;3.60;;;4.90;99.90;;;;;;5116684;28;20441;-61
2021/12/16 04:39:43;;;;;;;9.83;3.60;;;4.90;99.90;;;;;;5116397;28;20559;-61
2021/12/16 04:42:12;;;;;;;8.47;2.77;;;4.90;99.90;;;;;;5116529;28;20535;-60
2021/12/16 04:44:40;;;;;;;5.73;2.37;;;4.90;99.90;;;;;;5116575;27;20525;-59
2021/12/16 04:47:08;;;;;;;5.40;2.00;;;5.00;99.90;;;;;;5117099;28;20520;-60
2021/12/16 04:49:35;;;;;;;9.63;3.73;;;4.90;99.90;;;;;;5116446;28;20528;-59
2021/12/16 04:52:07;;;;;;;6.10;1.83;;;4.90;99.90;;;;;;5116719;28;20480;-60
2021/12/16 04:54:34;;;;;;;6.97;2.63;;;4.90;99.90;;;;;;5116456;28;20412;-59
2021/12/16 04:57:01;;;;;;;9.63;2.87;;;5.00;99.90;;;;;;5116523;28;20914;-61
2021/12/16 04:59:30;;;;;;;7.60;3.40;;;5.00;99.90;;;;;;5116733;28;20477;-61
2021/12/16 05:01:59;;;;;;;9.40;3.83;;;5.00;99.90;;;;;;5116846;28;20477;-61
2021/12/16 05:04:26;;;;;;;5.60;2.17;;;5.00;99.90;;;;;;5117022;28;20998;-61
2021/12/16 05:06:53;;;;;;;7.50;3.13;;;5.00;99.90;;;;;;5116806;28;20923;-61
2021/12/16 05:12:03;;;;;;;9.20;4.00;;;4.90;99.90;;;;;;5099212;28;20703;-61
2021/12/16 05:14:30;;;;;;;10.40;4.67;;;4.90;99.90;;;;;;5115961;28;20491;-60
2021/12/16 05:16:57;;;;;;;6.27;2.63;;;4.90;99.90;;;;;;5116156;28;20883;-61
2021/12/16 05:19:24;;;;;;;10.47;3.60;;;5.00;99.90;;;;;;5116581;28;20433;-61
2021/12/16 05:21:56;;;;;;;8.23;3.00;;;5.00;99.90;;;;;;5114411;28;20491;-61
2021/12/16 05:24:26;;;;;;;9.43;3.97;;;5.00;99.90;;;;;;5113566;28;20540;-61
2021/12/16 05:26:56;;;;;;;7.23;3.63;;;4.90;99.90;;;;;;5114727;28;20432;-61
2021/12/16 05:29:24;;;;;;;5.37;2.50;;;5.00;99.90;;;;;;5115114;28;20539;-61
2021/12/16 05:31:52;;;;;;;9.80;3.87;;;5.00;99.90;;;;;;5115256;28;20499;-61
2021/12/16 05:34:20;;;;;;;11.87;3.13;;;4.90;99.90;;;;;;5114384;28;20476;-61
2021/12/16 05:36:47;;;;;;;10.43;3.63;;;4.80;99.90;;;;;;5112878;28;20523;-61
2021/12/16 05:39:16;;;;;;;8.60;2.60;;;4.80;99.90;;;;;;5112205;28;20563;-61
2021/12/16 05:41:44;;;;;;;6.83;2.20;;;4.90;99.90;;;;;;5113984;28;20457;-61
2021/12/16 05:44:12;;;;;;;8.83;3.50;;;5.10;99.90;;;;;;5114136;28;20483;-61
2021/12/16 05:46:39;;;;;;;8.77;3.37;;;5.10;99.90;;;;;;5115830;28;20484;-61
2021/12/16 05:49:10;;;;;;;10.13;3.23;;;5.20;99.90;;;;;;5116104;28;20959;-61
2021/12/16 05:51:42;;;;;;;6.90;3.00;;;5.40;99.90;;;;;;5115459;28;20540;-61
2021/12/16 05:54:10;;;;;;;10.17;3.30;;;5.50;99.90;;;;;;5115291;28;20441;-62
2021/12/16 05:56:38;;;;;;;10.47;3.70;;;5.50;99.90;;;;;;5115918;28;20544;-62
2021/12/16 05:59:08;;;;;;;10.10;3.60;;;5.50;99.90;;;;;;5115809;28;20527;-62
2021/12/16 06:01:39;;;;;;;9.27;3.73;;;5.50;99.90;;;;;;5115070;28;20993;-64
2021/12/16 06:04:07;;;;;;;6.87;2.40;;;5.40;99.90;;;;;;5113684;28;20559;-62
2021/12/16 06:06:34;;;;;;;8.07;3.00;;;5.50;99.90;;;;;;5114923;28;20547;-61
2021/12/16 06:09:02;;;;;;;8.67;4.00;;;5.50;99.90;;;;;;5117369;28;20756;-61
2021/12/16 06:11:31;;;;;;;6.80;2.00;;;5.50;99.90;;;;;;5117121;28;20543;-61
2021/12/16 06:14:07;;;;;;;9.23;1.97;;;5.40;99.90;;;;;;5117564;28;20495;-61
2021/12/16 06:27:41;;;;;;;11.33;4.70;;;5.00;99.90;;;;;;5118499;28;20420;-62
2021/12/16 06:30:12;;;;;;;7.00;2.43;;;5.00;99.90;;;;;;5117661;28;20453;-62
2021/12/16 06:32:40;;;;;;;15.83;4.57;;;5.10;99.90;;;;;;5118091;28;20479;-62
2021/12/16 06:35:09;;;;;;;6.30;1.60;;;5.10;99.90;;;;;;5118152;28;20491;-62
2021/12/16 06:37:37;;;;;;;9.90;3.73;;;5.10;99.90;;;;;;5116909;28;20531;-62
2021/12/16 06:40:05;;;;;;;12.57;2.30;;;5.10;99.90;;;;;;5117163;28;20553;-63
2021/12/16 06:42:34;;;;;;;8.33;3.10;;;5.20;99.90;;;;;;5116339;28;20505;-62
2021/12/16 06:45:03;;;;;;;10.70;2.93;;;5.20;99.90;;;;;;5116855;28;20481;-62
2021/12/16 06:47:36;;;;;;;7.03;3.10;;;5.10;99.90;;;;;;5117661;28;20456;-61
2021/12/16 06:50:06;;;;;;;6.60;2.17;;;5.10;99.90;;;;;;5116542;28;20852;-62
2021/12/16 06:52:39;;;;;;;8.63;3.50;;;5.10;99.90;;;;;;5117873;28;20449;-61
2021/12/16 06:55:13;;;;;;;10.40;4.50;;;5.10;99.90;;;;;;5116307;28;20448;-62
2021/12/16 06:57:44;;;;;;;8.60;2.97;;;5.10;99.90;;;;;;5114909;28;20493;-62
2021/12/16 07:00:18;;;;;;;7.47;2.63;;;5.10;99.90;;;;;;5115839;28;20449;-62
2021/12/16 07:05:37;;;;;;;7.30;2.13;;;5.20;99.90;;;;;;5114984;28;20465;-62
2021/12/16 07:08:05;;;;;;;7.90;2.80;;;5.10;99.90;;;;;;5114218;28;20560;-62
2021/12/16 07:10:32;;;;;;;5.67;2.30;;;5.10;99.90;;;;;;5114436;28;20813;-62
2021/12/16 07:13:06;;;;;;;7.33;2.10;;;5.10;99.90;;;;;;5113526;28;20532;-62
2021/12/16 07:15:35;;;;;;;11.47;3.20;;;5.20;99.90;;;;;;5113111;28;20433;-62
2021/12/16 07:18:02;;;;;;;13.70;3.13;;;5.20;99.90;;;;;;5110758;28;20791;-62
2021/12/16 07:20:33;;;;;;;7.97;2.47;;;5.20;99.90;;;;;;5109361;28;20445;-61
2021/12/16 07:23:02;;;;;;;4.10;1.40;;;5.40;99.90;;;;;;5109662;28;20525;-61
2021/12/16 07:25:29;;;;;;;6.83;3.40;;;5.60;99.90;;;;;;5112050;28;20529;-60
2021/12/16 07:27:56;;;;;;;13.87;7.60;;;5.60;99.90;;;;;;5112943;28;20491;-60
2021/12/16 07:30:24;;;;;;;7.60;2.90;;;5.50;99.90;;;;;;5114173;28;20539;-60
2021/12/16 07:32:51;;;;;;;9.00;2.20;;;5.60;99.90;;;;;;5114400;28;20460;-60
2021/12/16 07:35:22;;;;;;;7.77;2.80;;;5.50;99.90;;;;;;5114248;28;20436;-62
2021/12/16 07:37:51;;;;;;;7.20;1.47;;;5.50;99.90;;;;;;5112064;28;20551;-61
2021/12/16 07:40:22;;;;;;;5.63;2.00;;;5.40;99.90;;;;;;5114308;28;20511;-65
2021/12/16 07:43:10;;;;;;;8.60;2.40;;;5.30;99.90;;;;;;5113035;28;20448;-66
2021/12/16 07:45:42;;;;;;;8.10;2.23;;;5.30;99.90;;;;;;5113857;28;20560;-70
2021/12/16 07:48:10;;;;;;;6.90;2.80;;;5.30;99.90;;;;;;5114524;28;20547;-65
2021/12/16 07:50:37;;;;;;;6.83;2.90;;;5.30;99.90;;;;;;5114915;28;20955;-66
2021/12/16 07:53:06;;;;;;;6.03;2.67;;;5.40;99.90;;;;;;5114706;28;20488;-64
2021/12/16 07:55:36;;;;;;;6.10;1.63;;;5.80;99.90;;;;;;5114159;28;20855;-65
2021/12/16 07:58:03;;;;;;;4.20;1.80;;;5.70;99.90;;;;;;5114069;28;20480;-65
2021/12/16 08:00:33;;;;;;;3.07;1.50;;;5.60;99.90;;;;;;5113568;28;20468;-64
2021/12/16 08:03:01;;;;;;;7.50;2.17;;;5.50;99.90;;;;;;5112052;28;20452;-65
2021/12/16 08:05:32;;;;;;;6.33;1.70;;;5.50;99.90;;;;;;5113514;28;20477;-65
2021/12/16 08:07:59;;;;;;;5.53;1.80;;;5.50;99.90;;;;;;5113538;28;20444;-65
2021/12/16 08:10:28;;;;;;;5.33;1.70;;;5.70;99.90;;;;;;5113247;28;20440;-66
2021/12/16 08:12:55;;;;;;;7.00;2.73;;;5.80;99.90;;;;;;5114303;28;20484;-65
2021/12/16 08:15:23;;;;;;;6.63;1.93;;;5.80;99.90;;;;;;5116445;28;20519;-64
2021/12/16 08:17:51;;;;;;;6.43;2.20;;;5.70;99.90;;;;;;5113434;28;20559;-67
2021/12/16 08:20:22;;;;;;;4.27;1.67;;;5.60;99.90;;;;;;5115911;28;20523;-65
2021/12/16 08:22:51;;;;;;;6.33;2.00;;;5.60;99.90;;;;;;5114350;28;20460;-64
2021/12/16 08:25:21;;;;;;;5.67;1.80;;;5.50;99.90;;;;;;5114815;28;20579;-65
2021/12/16 08:27:52;;;;;;;9.82;3.63;;;5.50;99.90;;;;;;5113917;28;20509;-63
2021/12/16 08:30:24;;;;;;;6.67;2.37;;;5.50;99.90;;;;;;5114925;28;20213;-62
2021/12/16 08:32:54;;;;;;;7.90;2.83;;;5.60;99.90;;;;;;5115442;28;20681;-62
2021/12/16 08:35:22;;;;;;;7.03;1.93;;;5.60;99.90;;;;;;5114188;28;20491;-62
2021/12/16 08:37:51;;;;;;;6.93;2.73;;;5.60;99.90;;;;;;5110607;28;20912;-62
2021/12/16 08:40:21;;;;;;;11.03;3.73;;;5.90;99.90;;;;;;5111375;28;20954;-63
2021/12/16 08:42:50;;;;;;;7.93;2.33;;;5.90;99.90;;;;;;5113906;28;20944;-64
2021/12/16 08:45:21;;;;;;;4.97;2.17;;;5.90;99.90;;;;;;5113758;28;20583;-62
2021/12/16 08:47:48;;;;;;;6.20;2.30;;;5.90;99.90;;;;;;5112749;28;20476;-61
2021/12/16 08:50:19;;;;;;;4.33;1.63;;;5.80;99.90;;;;;;5114710;28;20967;-61
2021/12/16 08:52:46;;;;;;;3.87;1.77;;;6.00;99.90;;;;;;5113814;28;20699;-61
2021/12/16 08:55:15;;;;;;;4.90;1.70;;;6.70;99.90;;;;;;5113683;28;20468;-63
2021/12/16 08:57:42;;;;;;;5.90;1.80;;;7.00;99.90;;;;;;5113616;28;20520;-63
2021/12/16 09:00:15;;;;;;;9.77;3.00;;;7.40;99.90;;;;;;5112356;28;20551;-63
2021/12/16 09:02:42;;;;;;;6.47;1.90;;;7.30;99.90;;;;;;5113723;28;20535;-63
2021/12/16 09:05:10;;;;;;;5.27;2.23;;;7.10;99.90;;;;;;5113479;28;20571;-62
2021/12/16 09:07:37;;;;;;;6.97;2.53;;;6.90;99.90;;;;;;5113619;28;20560;-64
2021/12/16 09:10:08;;;;;;;4.73;1.97;;;6.60;99.90;;;;;;5113484;28;20503;-64
2021/12/16 09:12:50;;;;;;;7.07;2.00;;;6.50;99.90;;;;;;5111812;28;20440;-63
2021/12/16 09:15:23;;;;;;;3.67;1.33;;;6.50;99.90;;;;;;5109300;28;20737;-63
2021/12/16 09:17:50;;;;;;;2.77;1.40;;;6.40;99.90;;;;;;5109558;28;20444;-63
2021/12/16 09:20:18;;;;;;;3.80;2.20;;;6.30;99.90;;;;;;5112293;28;20555;-63
2021/12/16 09:22:45;;;;;;;5.60;2.20;;;6.40;99.90;;;;;;5112147;28;20480;-62
2021/12/16 09:25:13;;;;;;;3.03;1.60;;;6.20;99.90;;;;;;5112303;28;20508;-63
2021/12/16 09:27:41;;;;;;;8.03;2.90;;;6.20;99.90;;;;;;5112907;28;20864;-63
2021/12/16 09:30:11;;;;;;;4.10;1.43;;;6.40;99.90;;;;;;5114627;28;20914;-63
2021/12/16 09:32:40;;;;;;;3.67;1.20;;;6.40;99.90;;;;;;5113245;28;20485;-62
2021/12/16 09:35:10;;;;;;;5.03;1.93;;;6.40;99.90;;;;;;5113582;28;20531;-63
2021/12/16 09:37:37;;;;;;;6.70;2.90;;;6.50;99.90;;;;;;5112119;28;20476;-61
2021/12/16 09:40:06;;;;;;;4.27;1.60;;;6.50;99.90;;;;;;5113050;28;20929;-63
2021/12/16 09:42:35;;;;;;;6.43;1.87;;;6.50;99.90;;;;;;5117373;28;20527;-63
2021/12/16 09:45:02;;;;;;;6.10;2.30;;;6.50;99.90;;;;;;5117932;28;20485;-63
2021/12/16 09:47:29;;;;;;;3.23;1.70;;;6.50;99.90;;;;;;5124489;27;20475;-62
2021/12/16 09:49:58;;;;;;;6.13;1.47;;;6.50;99.90;;;;;;5124160;27;20950;-62
2021/12/16 09:52:27;;;;;;;3.33;1.67;;;6.80;99.90;;;;;;5116501;28;20449;-62
2021/12/16 09:54:56;;;;;;;6.57;2.43;;;7.10;99.90;;;;;;5117217;28;20509;-60
2021/12/16 09:57:24;;;;;;;5.23;1.70;;;7.50;99.90;;;;;;5122372;27;20539;-61
2021/12/16 09:59:51;;;;;;;5.73;1.57;;;7.70;99.90;;;;;;5138788;27;20882;-63
2021/12/16 10:02:20;;;;;;;7.67;2.67;;;7.90;99.90;;;;;;5139698;27;20486;-61
2021/12/16 10:04:48;;;;;;;8.03;2.60;;;7.80;99.90;;;;;;5137984;27;20933;-61
2021/12/16 10:07:20;;;;;;;2.47;1.20;;;7.70;99.90;;;;;;5139683;27;20483;-60
2021/12/16 10:09:49;;;;;;;4.27;1.97;;;7.60;99.90;;;;;;5139419;27;20498;-60
2021/12/16 10:12:25;;;;;;;3.23;1.40;;;7.50;99.90;;;;;;5138959;27;20530;-61
2021/12/16 10:15:04;;;;;;;6.30;2.37;;;7.60;99.90;;;;;;5137458;27;20865;-61
2021/12/16 10:17:34;;;;;;;3.10;1.43;;;7.80;99.90;;;;;;5137657;27;20843;-61
2021/12/16 10:20:09;;;;;;;8.23;2.33;;;7.70;99.90;;;;;;5136739;27;20877;-61
2021/12/16 10:22:43;;;;;;;8.03;2.60;;;8.00;99.90;;;;;;5135408;27;20511;-61
2021/12/16 10:25:24;;;;;;;11.10;6.07;;;7.70;99.90;;;;;;5135029;27;20882;-61
2021/12/16 10:28:03;;;;;;;7.87;2.87;;;7.40;99.90;;;;;;5134647;27;21044;-61
2021/12/16 10:30:53;;;;;;;8.43;2.23;;;7.50;99.90;;;;;;5115887;27;20550;-62
2021/12/16 10:33:26;;;;;;;5.27;1.73;;;7.50;99.90;;;;;;5096204;28;20868;-62
2021/12/16 10:36:00;;;;;;;5.27;2.07;;;7.50;99.90;;;;;;5095548;28;20880;-62
2021/12/16 10:38:29;;;;;;;3.97;1.60;;;7.70;99.90;;;;;;5092527;28;20547;-62
2021/12/16 10:40:58;;;;;;;3.60;1.40;;;7.70;99.90;;;;;;5075214;28;20541;-60
2021/12/16 10:43:29;;;;;;;7.73;1.90;;;7.60;99.90;;;;;;5092044;28;20524;-60
2021/12/16 10:46:08;;;;;;;6.07;2.30;;;7.60;99.90;;;;;;5094903;28;21002;-60
2021/12/16 10:48:39;;;;;;;6.83;2.00;;;7.60;99.90;;;;;;5097453;28;20532;-60
2021/12/16 10:51:26;;;;;;;4.43;2.10;;;7.50;99.90;;;;;;5112390;28;20524;-60
2021/12/16 10:54:06;;;;;;;6.07;1.97;;;7.30;99.90;;;;;;5117140;27;20536;-60
2021/12/16 10:56:38;;;;;;;5.63;1.77;;;7.40;99.90;;;;;;5110905;28;20528;-60
2021/12/16 10:59:16;;;;;;;11.40;2.17;;;7.40;99.90;;;;;;5110410;28;20555;-60
2021/12/16 11:02:06;;;;;;;7.10;2.53;;;7.50;99.90;;;;;;5114585;28;20828;-60
2021/12/16 11:04:43;;;;;;;4.83;1.60;;;7.70;99.90;;;;;;5094819;28;20501;-60
2021/12/16 11:07:15;;;;;;;2.87;1.60;;;7.80;99.90;;;;;;5095073;28;20477;-60
2021/12/16 11:09:51;;;;;;;6.40;2.00;;;8.20;99.90;;;;;;5114100;28;20790;-60
2021/12/16 11:12:50;;;;;;;6.57;2.13;;;8.30;99.90;;;;;;5115937;28;20448;-60
2021/12/16 11:15:21;;;;;;;4.90;2.20;;;8.30;99.90;;;;;;5115940;28;20444;-60
2021/12/16 11:17:52;;;;;;;4.57;1.50;;;8.20;99.90;;;;;;5116842;28;20507;-60
2021/12/16 11:20:27;;;;;;;4.30;1.30;;;8.30;99.90;;;;;;5113897;28;20551;-60
2021/12/16 11:22:56;;;;;;;6.80;2.13;;;8.40;99.90;;;;;;5113976;28;20551;-60
2021/12/16 11:25:30;;;;;;;5.50;2.07;;;8.60;99.90;;;;;;5114815;28;20755;-60
2021/12/16 11:28:09;;;;;;;5.60;1.83;;;8.40;99.90;;;;;;5115086;28;20441;-60
2021/12/16 11:30:43;;;;;;;6.47;2.23;;;8.20;99.90;;;;;;5113719;28;20918;-60
2021/12/16 11:33:27;;;;;;;7.57;2.77;;;8.10;99.90;;;;;;5115093;28;20856;-60
2021/12/16 11:36:00;;;;;;;9.43;3.40;;;7.90;99.90;;;;;;5107876;27;20433;-61
2021/12/16 11:38:34;;;;;;;11.60;5.37;;;7.80;99.90;;;;;;5131994;27;20570;-60
2021/12/16 11:41:17;;;;;;;6.33;2.37;;;7.70;99.90;;;;;;5135450;27;20550;-60
2021/12/16 11:44:03;;;;;;;5.17;2.37;;;7.50;99.90;;;;;;5130637;27;20965;-60
2021/12/16 11:46:38;;;;;;;7.93;2.57;;;7.80;99.90;;;;;;5133144;27;20468;-60
2021/12/16 11:49:16;;;;;;;5.57;2.57;;;7.80;99.90;;;;;;5114700;28;20451;-60
2021/12/16 11:51:52;;;;;;;9.03;2.67;;;7.90;99.90;;;;;;5113020;28;21075;-60
2021/12/16 11:54:26;;;;;;;8.03;3.57;;;7.80;99.90;;;;;;5113683;28;20452;-60
2021/12/16 11:57:14;;;;;;;9.20;3.60;;;7.90;99.90;;;;;;5113478;28;20890;-62
2021/12/16 11:59:44;;;;;;;4.63;1.80;;;8.10;99.90;;;;;;5113083;28;20453;-61
2021/12/16 12:02:28;;;;;;;8.17;2.37;;;8.20;99.90;;;;;;5114270;28;20497;-61
2021/12/16 12:08:06;;;;;;;3.67;1.53;;;8.20;99.90;;;;;;5120585;27;20528;-61
2021/12/16 12:10:43;;;;;;;6.27;2.93;;;8.30;99.90;;;;;;5115324;28;20937;-61
2021/12/16 12:13:20;;;;;;;5.73;3.00;;;8.50;99.90;;;;;;5113895;28;20529;-61
2021/12/16 12:16:04;;;;;;;8.90;3.90;;;8.40;99.90;;;;;;5114558;28;20629;-62
2021/12/16 12:18:37;;;;;;;7.27;2.23;;;8.10;99.90;;;;;;5112564;28;20940;-60
2021/12/16 12:21:36;;;;;;;6.80;2.73;;;8.00;99.90;;;;;;5114231;28;20508;-61
2021/12/16 12:24:09;;;;;;;5.37;2.27;;;8.00;99.90;;;;;;5056768;28;20665;-61
2021/12/16 12:26:39;;;;;;;4.93;1.70;;;7.80;99.90;;;;;;5112706;28;20538;-61
2021/12/16 12:29:12;;;;;;;5.43;2.20;;;7.80;99.90;;;;;;5112144;28;21090;-61
2021/12/16 12:31:43;;;;;;;7.53;2.63;;;7.80;99.90;;;;;;5112372;28;21031;-61
2021/12/16 12:34:13;;;;;;;5.37;2.47;;;7.90;99.90;;;;;;5109487;28;20536;-61
2021/12/16 12:36:48;;;;;;;9.80;3.20;;;7.90;99.90;;;;;;5111350;28;20557;-61
2021/12/16 12:39:25;;;;;;;8.43;1.87;;;7.80;99.90;;;;;;5113152;28;20488;-61
2021/12/16 12:41:55;;;;;;;11.37;6.00;;;7.80;99.90;;;;;;5111765;28;20699;-61
2021/12/16 12:44:27;;;;;;;8.10;2.47;;;7.70;99.90;;;;;;5112400;28;20883;-61
2021/12/16 12:46:55;;;;;;;7.97;2.63;;;7.60;99.90;;;;;;5112506;28;20481;-61
2021/12/16 12:49:26;;;;;;;7.93;2.33;;;7.70;99.90;;;;;;5110216;28;20456;-61
2021/12/16 12:52:04;;;;;;;3.33;1.83;;;7.70;99.90;;;;;;5104964;28;20440;-62
2021/12/16 12:54:35;;;;;;;6.07;1.80;;;7.80;99.90;;;;;;5113931;28;20887;-61
2021/12/16 12:57:21;;;;;;;5.33;2.47;;;7.70;99.90;;;;;;5112329;28;20574;-62
2021/12/16 12:59:49;;;;;;;6.90;2.53;;;7.50;99.90;;;;;;5113291;28;20492;-63
2021/12/16 13:02:19;;;;;;;5.83;2.27;;;7.50;99.90;;;;;;5113321;28;20498;-61
2021/12/16 13:04:52;;;;;;;8.40;3.95;;;7.50;99.90;;;;;;5112168;28;20451;-62
2021/12/16 13:07:19;;;;;;;9.40;3.67;;;7.70;99.90;;;;;;5112316;28;20262;-62
2021/12/16 13:09:48;;;;;;;5.60;2.00;;;7.70;99.90;;;;;;5112721;28;20453;-62
2021/12/16 13:12:39;;;;;;;5.67;1.97;;;7.80;99.90;;;;;;5112487;28;20597;-60
2021/12/16 13:15:32;;;;;;;5.43;2.97;;;7.70;99.90;;;;;;5111409;28;20456;-61
2021/12/16 13:27:03;;;;;;;6.10;2.37;;;7.80;99.90;;;;;;5090470;28;20919;-62
2021/12/16 13:29:41;;;;;;;4.77;1.27;;;7.90;99.90;;;;;;5110931;28;20486;-61
2021/12/16 13:32:15;;;;;;;10.60;1.90;;;8.00;99.90;;;;;;5111995;28;20875;-60
2021/12/16 13:34:51;;;;;;;7.87;2.80;;;8.20;99.90;;;;;;5112733;28;20902;-60
2021/12/16 13:37:24;;;;;;;6.10;1.70;;;8.30;99.90;;;;;;5110247;28;20786;-60
2021/12/16 13:40:00;;;;;;;5.80;2.43;;;8.50;99.90;;;;;;5111566;28;20480;-60
2021/12/16 13:42:41;;;;;;;5.63;1.60;;;8.60;99.90;;;;;;5110452;28;20871;-61
2021/12/16 13:45:20;;;;;;;8.27;2.50;;;8.80;99.90;;;;;;5111343;28;20449;-60
2021/12/16 13:48:04;;;;;;;4.53;1.87;;;8.90;99.90;;;;;;5110630;28;20480;-61
2021/12/16 14:02:51;;;;;;;5.80;2.53;;;8.70;99.90;;;;;;5113367;28;20421;-61
2021/12/16 14:05:27;;;;;;;5.33;2.43;;;8.70;99.90;;;;;;5113933;28;20513;-61
2021/12/16 14:07:59;;;;;;;9.13;3.13;;;8.80;99.90;;;;;;5105680;28;20774;-60
2021/12/16 14:10:50;;;;;;;8.27;2.20;;;8.80;99.90;;;;;;5112326;28;20452;-60
2021/12/16 14:16:36;;;;;;;6.80;2.13;;;8.70;99.90;;;;;;5049693;28;20753;-59
2021/12/16 14:42:11;;;;;;;7.10;1.47;;;9.00;99.90;;;;;;5100295;28;20937;-59
2021/12/16 14:47:53;;;;;;;7.17;2.70;;;9.10;99.90;;;;;;5086721;28;20463;-58
2021/12/16 14:50:26;;;;;;;4.13;2.07;;;8.80;99.90;;;;;;5099910;28;20493;-57
2021/12/16 14:52:54;;;;;;;4.77;2.20;;;8.50;99.90;;;;;;5096868;28;20479;-57
2021/12/16 14:55:23;;;;;;;7.07;1.77;;;8.30;99.90;;;;;;5101470;28;20514;-59
2021/12/16 14:57:54;;;;;;;6.40;1.97;;;8.60;99.90;;;;;;5102922;27;20449;-58
2021/12/16 15:00:30;;;;;;;5.70;2.67;;;8.80;99.90;;;;;;5106058;27;21133;-56
2021/12/16 15:03:09;;;;;;;4.37;1.67;;;9.10;99.90;;;;;;5098660;28;20456;-56
2021/12/16 15:05:45;;;;;;;5.50;2.17;;;9.10;99.90;;;;;;5106181;28;20513;-55
2021/12/16 15:08:26;;;;;;;9.13;2.90;;;9.00;99.90;;;;;;5108747;28;20482;-55
2021/12/16 15:11:03;;;;;;;2.80;1.40;;;8.80;99.90;;;;;;5111975;28;20441;-56
2021/12/16 15:13:36;;;;;;;4.07;2.10;;;8.70;99.90;;;;;;5106246;28;20456;-56
2021/12/16 15:16:25;;;;;;;6.40;2.20;;;8.50;99.90;;;;;;5103480;28;20476;-55
2021/12/16 15:38:58;;;;;;;8.50;2.20;;;8.20;99.90;;;;;;5112587;27;20499;-53
2021/12/16 15:44:14;;;;;;;8.00;3.30;;;8.40;99.90;;;;;;5114616;27;20441;-55
2021/12/16 15:46:44;;;;;;;4.20;1.87;;;8.40;99.90;;;;;;5113385;27;20441;-53
2021/12/16 15:49:12;;;;;;;4.53;1.80;;;8.50;99.90;;;;;;5114918;27;20456;-56
2021/12/16 15:51:47;;;;;;;3.93;1.77;;;8.40;99.90;;;;;;5108176;27;21990;-56
2021/12/16 15:54:18;;;;;;;3.67;1.57;;;8.40;99.90;;;;;;5118969;27;20464;-55
2021/12/16 15:56:50;;;;;;;3.37;2.17;;;8.40;99.90;;;;;;5112709;27;20445;-55
2021/12/16 15:59:20;;;;;;;3.53;1.67;;;8.40;99.90;;;;;;5115045;27;21068;-54
2021/12/16 16:01:52;;;;;;;5.37;1.83;;;8.50;99.90;;;;;;5114282;28;20477;-54
2021/12/16 16:04:21;;;;;;;4.77;1.70;;;8.40;99.90;;;;;;5112497;28;20455;-58
2021/12/16 16:06:52;;;;;;;10.30;3.20;;;8.10;99.90;;;;;;5112280;28;20523;-55
2021/12/16 16:09:23;;;;;;;6.30;2.23;;;7.90;99.90;;;;;;5110019;27;20533;-54
2021/12/16 16:11:55;;;;;;;3.30;2.10;;;7.80;99.90;;;;;;5113864;27;20598;-53
2021/12/16 16:14:28;;;;;;;4.03;1.70;;;7.80;99.90;;;;;;5111740;27;20917;-55
2021/12/16 16:16:58;;;;;;;4.03;2.20;;;7.90;99.90;;;;;;5109117;27;20453;-54
2021/12/16 16:19:28;;;;;;;10.80;2.53;;;8.10;99.90;;;;;;5106654;28;20456;-52
2021/12/16 16:22:02;;;;;;;4.30;1.87;;;8.20;99.90;;;;;;5107970;28;20547;-56
2021/12/16 16:24:37;;;;;;;5.47;2.17;;;8.20;99.90;;;;;;5112756;28;20453;-54
2021/12/16 16:27:07;;;;;;;4.50;3.07;;;8.20;99.90;;;;;;5110725;28;21000;-56
2021/12/16 16:29:37;;;;;;;6.63;3.03;;;8.10;99.90;;;;;;5110553;28;20551;-55